createdAt,value
2023-03-20T00:13:35.316Z,1.23
2023-03-20T00:19:02.026Z,2.05
2023-03-20T00:24:07.755Z,1.50
2023-03-20T00:29:32.825Z,2.50
2023-03-20T00:51:50.298Z,1.15
2023-03-20T00:57:22.040Z,2.75
2023-03-20T01:02:32.928Z,1.38
2023-03-20T01:07:41.084Z,1.05
2023-03-20T01:12:50.308Z,1.13
2023-03-20T01:18:06.536Z,2.42
2023-03-20T01:23:23.387Z,1.13
2023-03-20T01:28:48.860Z,1.38
2023-03-20T01:34:02.642Z,0.90
2023-03-20T01:39:18.937Z,1.10
2023-03-20T01:44:35.398Z,1.55
2023-03-20T01:50:15.275Z,1.38
2023-03-20T01:55:27.847Z,1.73
2023-03-20T02:01:06.819Z,1.17
2023-03-20T02:06:29.245Z,0.88
2023-03-20T02:11:43.228Z,1.05
2023-03-20T02:16:58.917Z,1.42
2023-03-20T02:22:31.662Z,2.20
2023-03-20T02:27:55.577Z,1.85
2023-03-20T02:33:52.438Z,1.50
2023-03-20T02:39:40.417Z,1.15
2023-03-20T02:45:16.196Z,2.92
2023-03-20T02:50:52.650Z,1.35
2023-03-20T02:56:41.914Z,1.38
2023-03-20T03:01:57.491Z,4.20
2023-03-20T03:07:05.239Z,2.55
2023-03-20T03:12:19.713Z,1.25
2023-03-20T03:17:28.911Z,1.88
2023-03-20T03:22:37.450Z,1.40
2023-03-20T03:28:07.932Z,1.30
2023-03-20T03:33:29.725Z,1.20
2023-03-20T03:39:18.963Z,1.40
2023-03-20T03:44:59.341Z,1.10
2023-03-20T03:50:30.178Z,1.95
2023-03-20T03:55:45.977Z,2.20
2023-03-20T04:00:54.972Z,1.85
2023-03-20T04:06:12.854Z,2.27
2023-03-20T04:11:27.614Z,1.48
2023-03-20T04:16:35.964Z,1.73
2023-03-20T04:21:42.710Z,1.02
2023-03-20T04:26:45.455Z,1.17
2023-03-20T04:31:50.476Z,1.08
2023-03-20T04:37:04.386Z,1.90
2023-03-20T04:42:21.806Z,1.55
2023-03-20T04:47:36.198Z,1.60
2023-03-20T04:52:42.097Z,1.58
2023-03-20T04:57:45.516Z,2.20
2023-03-20T05:02:48.758Z,2.28
2023-03-20T05:07:55.600Z,1.50
2023-03-20T05:13:11.768Z,2.77
2023-03-20T05:18:32.476Z,1.67
2023-03-20T05:23:48.489Z,1.70
2023-03-20T05:28:59.898Z,1.50
2023-03-20T05:34:23.310Z,1.23
2023-03-20T05:39:49.687Z,1.70
2023-03-20T05:45:12.954Z,1.63
2023-03-20T05:50:25.525Z,1.42
2023-03-20T05:55:51.536Z,1.30
2023-03-20T06:01:16.993Z,1.70
2023-03-20T06:06:38.718Z,1.92
2023-03-20T06:11:42.997Z,2.28
2023-03-20T06:16:47.082Z,5.00
2023-03-20T06:21:53.088Z,3.17
2023-03-20T06:26:57.429Z,2.00
2023-03-20T06:32:01.913Z,3.10
2023-03-20T06:37:07.296Z,2.22
2023-03-20T06:42:15.049Z,1.88
2023-03-20T06:47:19.121Z,2.08
2023-03-20T06:52:22.736Z,2.47
2023-03-20T06:57:42.946Z,1.55
2023-03-20T07:02:45.728Z,1.67
2023-03-20T07:07:50.329Z,3.22
2023-03-20T07:12:52.510Z,2.83
2023-03-20T07:17:55.087Z,2.60
2023-03-20T07:22:57.933Z,2.97
2023-03-20T07:28:02.459Z,3.78
2023-03-20T07:33:04.982Z,3.38
2023-03-20T07:38:09.152Z,4.05
2023-03-20T07:43:21.400Z,3.45
2023-03-20T07:48:32.493Z,3.63
2023-03-20T07:53:34.810Z,3.78
2023-03-20T07:58:37.019Z,5.10
2023-03-20T08:03:39.748Z,2.45
2023-03-20T08:08:42.157Z,3.53
2023-03-20T08:13:44.707Z,5.47
2023-03-20T08:18:47.077Z,3.55
2023-03-20T08:23:49.245Z,3.33
2023-03-20T08:28:52.667Z,3.63
2023-03-20T08:33:56.672Z,3.75
2023-03-20T08:38:58.799Z,3.67
2023-03-20T08:44:01.623Z,3.38
2023-03-20T08:49:05.245Z,4.30
2023-03-20T08:54:07.328Z,3.42
2023-03-20T08:59:09.511Z,2.88
2023-03-20T09:04:13.218Z,3.35
2023-03-20T09:09:16.310Z,3.35
2023-03-20T09:14:18.512Z,3.10
2023-03-20T09:19:21.190Z,3.17
2023-03-20T09:24:23.564Z,3.00
2023-03-20T09:29:26.028Z,3.28
2023-03-20T09:34:29.471Z,2.17
2023-03-20T09:39:31.709Z,2.28
2023-03-20T09:44:36.782Z,3.05
2023-03-20T09:49:39.115Z,1.70
2023-03-20T09:54:54.103Z,1.52
2023-03-20T10:00:10.413Z,1.33
2023-03-20T10:05:23.350Z,1.42
2023-03-20T10:10:49.056Z,1.88
2023-03-20T10:15:57.425Z,1.83
2023-03-20T10:21:14.204Z,1.83
2023-03-20T10:26:21.742Z,1.50
2023-03-20T10:31:47.749Z,1.75
2023-03-20T10:37:05.809Z,1.27
2023-03-20T10:42:27.902Z,1.10
2023-03-20T10:47:36.601Z,1.42
2023-03-20T10:52:41.763Z,0.80
2023-03-20T10:57:56.514Z,1.45
2023-03-20T11:02:58.624Z,1.25
2023-03-20T11:08:06.780Z,0.88
2023-03-20T11:13:32.448Z,0.80
2023-03-20T11:18:34.993Z,2.75
2023-03-20T11:23:41.215Z,1.05
2023-03-20T11:28:56.548Z,2.00
2023-03-20T11:34:19.972Z,0.55
2023-03-20T11:39:32.636Z,0.88
2023-03-20T11:44:44.109Z,0.63
2023-03-20T11:54:58.744Z,0.50
2023-03-20T12:00:26.202Z,0.55
2023-03-20T12:05:43.666Z,1.10
2023-03-20T12:11:04.987Z,0.50
2023-03-20T12:16:25.861Z,0.50
2023-03-20T12:22:18.591Z,0.70
2023-03-20T12:27:34.873Z,0.52
2023-03-20T12:32:54.512Z,0.70
2023-03-20T12:38:00.677Z,0.40
2023-03-20T12:43:23.360Z,0.82
2023-03-20T12:49:05.220Z,0.93
2023-03-20T12:54:59.636Z,0.73
2023-03-20T13:00:11.958Z,2.03
2023-03-20T13:05:47.946Z,1.05
2023-03-20T13:11:07.706Z,1.50
2023-03-20T13:16:37.873Z,0.70
2023-03-20T13:21:58.741Z,0.70
2023-03-20T13:27:20.032Z,0.60
2023-03-20T13:32:29.738Z,0.60
2023-03-20T13:37:45.033Z,0.68
2023-03-20T13:43:05.493Z,0.73
2023-03-20T13:48:45.117Z,0.45
2023-03-20T13:53:53.380Z,0.60
2023-03-20T13:59:04.947Z,0.43
2023-03-20T14:04:18.945Z,0.68
2023-03-20T14:09:30.887Z,0.98
2023-03-20T14:14:54.065Z,0.75
2023-03-20T14:20:13.858Z,0.75
2023-03-20T14:25:21.401Z,0.90
2023-03-20T14:30:32.553Z,1.08
2023-03-20T14:35:43.200Z,0.68
2023-03-20T14:41:20.275Z,0.88
2023-03-20T14:46:52.756Z,1.35
2023-03-20T14:52:02.608Z,0.65
2023-03-20T14:57:29.247Z,1.15
2023-03-20T15:02:37.464Z,2.53
2023-03-20T15:07:45.904Z,2.03
2023-03-20T15:12:53.346Z,0.70
2023-03-20T15:18:05.917Z,0.60
2023-03-20T15:23:14.251Z,0.80
2023-03-20T15:28:29.347Z,0.98
2023-03-20T15:33:40.741Z,0.70
2023-03-20T15:38:47.283Z,0.80
2023-03-20T15:44:03.557Z,1.27
2023-03-20T15:49:07.367Z,0.40
2023-03-20T15:54:14.035Z,1.45
2023-03-20T15:59:23.146Z,0.68
2023-03-20T16:04:31.958Z,1.65
2023-03-20T16:09:47.515Z,1.30
2023-03-20T16:14:54.560Z,0.90
2023-03-20T16:20:11.813Z,1.10
2023-03-20T16:25:19.541Z,1.35
2023-03-20T16:30:34.831Z,0.80
2023-03-20T16:35:43.616Z,0.47
2023-03-20T16:40:51.426Z,0.95
2023-03-20T16:45:58.072Z,1.17
2023-03-20T16:51:24.768Z,0.80
2023-03-20T16:56:35.092Z,0.82
2023-03-20T17:01:43.705Z,1.98
2023-03-20T17:07:01.581Z,1.35
2023-03-20T17:12:20.187Z,2.70
2023-03-20T17:17:25.282Z,2.83
2023-03-20T17:22:35.553Z,1.77
2023-03-20T17:27:39.334Z,2.17
2023-03-20T17:32:45.179Z,3.78
2023-03-20T17:37:53.532Z,1.55
2023-03-20T17:43:07.230Z,5.53
2023-03-20T17:48:23.932Z,2.95
2023-03-20T17:53:30.083Z,3.50
2023-03-20T17:58:35.719Z,4.15
2023-03-20T18:03:49.493Z,6.15
2023-03-20T18:08:58.699Z,8.48
2023-03-20T18:14:02.161Z,3.58
2023-03-20T18:19:10.080Z,7.53
2023-03-20T18:24:15.599Z,6.28
2023-03-20T18:29:20.957Z,13.13
2023-03-20T18:34:24.187Z,9.68
2023-03-20T18:39:31.780Z,9.98
2023-03-20T18:44:36.281Z,11.68
2023-03-20T18:49:43.116Z,5.78
2023-03-20T18:54:48.394Z,7.13
2023-03-20T18:59:52.163Z,6.82
2023-03-20T19:04:55.943Z,6.35
2023-03-20T19:09:59.260Z,9.23
2023-03-20T19:15:01.973Z,3.90
2023-03-20T19:20:22.052Z,5.70
2023-03-20T19:25:25.658Z,2.88
2023-03-20T19:30:39.556Z,3.28
2023-03-20T19:36:01.752Z,3.05
2023-03-20T19:46:45.495Z,4.15
2023-03-20T19:51:50.911Z,3.40
2023-03-20T19:56:57.746Z,2.17
2023-03-20T20:02:02.279Z,3.90
2023-03-20T20:07:53.299Z,4.83
2023-03-20T20:12:40.030Z,4.75
2023-03-20T20:17:42.646Z,2.63
2023-03-20T20:22:46.294Z,4.25
2023-03-20T20:27:54.371Z,1.73
2023-03-20T20:38:40.834Z,2.88
2023-03-20T20:44:11.878Z,1.38
2023-03-20T20:49:18.780Z,1.60
2023-03-20T20:54:22.200Z,1.60
2023-03-20T20:59:24.496Z,1.58
2023-03-20T21:04:27.706Z,1.50
2023-03-20T21:09:30.365Z,1.35
2023-03-20T21:14:32.870Z,1.30
2023-03-20T21:19:39.082Z,2.72
2023-03-20T21:24:41.616Z,1.58
2023-03-20T21:30:09.699Z,3.92
2023-03-20T21:35:15.764Z,2.90
2023-03-20T21:40:26.415Z,4.45
2023-03-20T21:51:23.524Z,5.85
2023-03-20T22:02:32.489Z,4.85
2023-03-20T22:08:48.629Z,4.97
2023-03-20T22:46:56.591Z,5.78
2023-03-20T22:52:19.653Z,3.58
2023-03-20T22:57:38.813Z,2.42
2023-03-20T23:02:44.873Z,2.63
2023-03-20T23:08:31.464Z,3.15
2023-03-20T23:13:42.638Z,4.72
2023-03-20T23:18:45.481Z,2.13
2023-03-20T23:23:48.432Z,1.73
2023-03-20T23:28:55.777Z,1.60
2023-03-20T23:34:00.800Z,2.97
2023-03-20T23:39:12.039Z,1.85
2023-03-20T23:44:15.562Z,2.15
2023-03-20T23:49:17.943Z,2.15
2023-03-20T23:54:20.799Z,2.25
2023-03-20T23:59:23.398Z,2.10
